Time;durP1;ratioP1;P1;durP2;ratioP2;P2;SDS_P1;SDS_P2;PMS_P1;PMS_P2;Temp;Humidity;BMP_temperature;BMP_pressure;BME280_temperature;BME280_humidity;BME280_pressure;Samples;Min_cycle;Max_cycle;Signal;HPM_P1;HPM_P2
2021/01/20 00:01:58;;;;;;;4.17;3.77;;;2.00;99.90;;;;;;5036351;28;20194;-76
2021/01/20 00:04:24;;;;;;;4.37;3.97;;;2.00;99.90;;;;;;5033234;28;20178;-76
2021/01/20 00:06:49;;;;;;;5.53;4.30;;;1.90;99.90;;;;;;5036113;28;20728;-76
2021/01/20 00:09:16;;;;;;;5.10;4.60;;;1.80;99.90;;;;;;5018235;28;20194;-76
2021/01/20 00:11:41;;;;;;;4.30;3.90;;;1.80;99.90;;;;;;5032388;28;20233;-76
2021/01/20 00:14:07;;;;;;;5.37;4.10;;;1.70;99.90;;;;;;5018550;28;20649;-75
2021/01/20 00:16:33;;;;;;;5.23;4.17;;;1.70;99.90;;;;;;5036166;28;20183;-76
2021/01/20 00:18:59;;;;;;;5.77;4.50;;;1.60;99.90;;;;;;5036021;28;20202;-76
2021/01/20 00:21:25;;;;;;;5.47;4.13;;;1.50;99.90;;;;;;5035777;28;22551;-76
2021/01/20 00:23:51;;;;;;;5.83;3.83;;;1.40;99.90;;;;;;5036088;28;20199;-75
2021/01/20 00:26:17;;;;;;;5.10;3.97;;;1.30;99.90;;;;;;5035584;28;20186;-75
2021/01/20 00:28:43;;;;;;;4.53;4.07;;;1.20;99.90;;;;;;5009447;28;20187;-75
2021/01/20 00:31:11;;;;;;;5.00;4.30;;;1.30;99.90;;;;;;5035838;28;20214;-75
2021/01/20 00:33:37;;;;;;;4.27;3.87;;;1.30;99.90;;;;;;5035555;28;20224;-75
2021/01/20 00:36:03;;;;;;;3.73;3.43;;;1.40;99.90;;;;;;5035000;28;20265;-75
2021/01/20 00:38:29;;;;;;;3.63;3.30;;;1.40;99.90;;;;;;5035329;28;20750;-75
2021/01/20 00:40:55;;;;;;;4.13;3.73;;;1.60;99.90;;;;;;5035669;28;20582;-75
2021/01/20 00:43:20;;;;;;;4.63;3.53;;;1.70;99.90;;;;;;5017364;28;20195;-75
2021/01/20 00:45:46;;;;;;;2.87;2.67;;;1.80;99.90;;;;;;5017579;28;20320;-75
2021/01/20 00:48:12;;;;;;;4.03;3.63;;;1.70;99.90;;;;;;5035603;28;20244;-76
2021/01/20 00:50:39;;;;;;;3.80;3.40;;;1.70;99.90;;;;;;5035523;28;20190;-76
2021/01/20 00:53:04;;;;;;;3.10;2.83;;;1.70;99.90;;;;;;5017547;28;20251;-75
2021/01/20 00:55:30;;;;;;;5.30;3.33;;;1.50;99.90;;;;;;5035330;28;20193;-76
2021/01/20 00:57:56;;;;;;;4.27;3.33;;;1.30;99.90;;;;;;5035269;28;20233;-76
2021/01/20 01:00:22;;;;;;;3.67;3.13;;;1.10;99.90;;;;;;5035194;28;20182;-74
2021/01/20 01:02:51;;;;;;;3.83;3.50;;;1.00;99.90;;;;;;5034907;28;20198;-76
2021/01/20 01:05:17;;;;;;;6.43;3.40;;;0.80;99.90;;;;;;5035202;28;20265;-76
2021/01/20 01:07:43;;;;;;;4.77;3.27;;;0.70;99.90;;;;;;5017188;28;20531;-76
2021/01/20 01:10:09;;;;;;;5.23;3.97;;;0.50;99.90;;;;;;5017219;28;20208;-76
2021/01/20 01:12:36;;;;;;;4.27;3.87;;;0.30;99.90;;;;;;5034655;28;20572;-76
2021/01/20 01:15:03;;;;;;;4.40;4.00;;;0.30;99.90;;;;;;5034899;28;20187;-76
2021/01/20 01:17:29;;;;;;;5.07;4.30;;;0.20;99.90;;;;;;5016995;28;20189;-76
2021/01/20 01:19:55;;;;;;;4.63;3.97;;;0.50;99.90;;;;;;5016877;28;20198;-76
2021/01/20 01:22:20;;;;;;;4.50;4.10;;;0.10;99.90;;;;;;5016629;28;20281;-76
2021/01/20 01:24:46;;;;;;;6.90;4.73;;;0.00;99.90;;;;;;5016926;28;20187;-76
2021/01/20 01:27:12;;;;;;;4.93;4.43;;;-0.10;99.90;;;;;;5031521;28;20542;-76
2021/01/20 01:29:38;;;;;;;5.73;4.57;;;-0.20;99.90;;;;;;5029363;28;20178;-76
2021/01/20 01:32:04;;;;;;;7.87;4.47;;;-0.20;99.90;;;;;;5034750;28;20735;-76
2021/01/20 01:34:32;;;;;;;6.20;4.93;;;-0.30;99.90;;;;;;5034575;28;20572;-76
2021/01/20 01:36:58;;;;;;;7.03;5.20;;;-0.40;99.90;;;;;;5034360;28;20191;-75
2021/01/20 01:39:23;;;;;;;5.63;4.93;;;-0.40;99.90;;;;;;5034338;28;20308;-75
2021/01/20 01:41:49;;;;;;;7.90;5.43;;;-0.50;99.90;;;;;;5034438;28;20199;-76
2021/01/20 01:44:17;;;;;;;7.23;4.83;;;-0.50;99.90;;;;;;5034214;28;20186;-76
2021/01/20 01:46:43;;;;;;;5.40;4.87;;;-0.60;99.90;;;;;;5016490;28;20186;-76
2021/01/20 01:49:10;;;;;;;8.97;5.40;;;-0.60;99.90;;;;;;5033461;28;20185;-75
2021/01/20 01:51:35;;;;;;;6.30;4.90;;;-0.60;99.90;;;;;;5034071;28;20750;-76
2021/01/20 01:54:02;;;;;;;5.90;5.10;;;-0.60;99.90;;;;;;5034252;28;20191;-76
2021/01/20 01:56:28;;;;;;;7.77;5.13;;;-0.70;99.90;;;;;;5034305;28;20182;-76
2021/01/20 01:58:54;;;;;;;6.60;4.63;;;-0.70;99.90;;;;;;5033916;28;20695;-76
2021/01/20 02:01:20;;;;;;;6.37;5.00;;;-0.70;99.90;;;;;;5033594;28;20186;-76
2021/01/20 02:03:50;;;;;;;8.07;5.67;;;-0.80;99.90;;;;;;5034162;28;20543;-76
2021/01/20 02:06:15;;;;;;;8.13;5.33;;;-0.90;99.90;;;;;;5030731;28;20201;-76
2021/01/20 02:08:42;;;;;;;8.50;4.97;;;-0.90;99.90;;;;;;5013077;28;20224;-76
2021/01/20 02:11:17;;;;;;;7.13;5.17;;;-0.90;99.90;;;;;;5033652;28;20643;-76
2021/01/20 02:14:22;;;;;;;7.77;5.37;;;-0.90;99.90;;;;;;5034001;28;20544;-76
2021/01/20 02:17:04;;;;;;;7.20;5.40;;;-0.80;99.90;;;;;;5034001;28;20180;-75
2021/01/20 02:20:09;;;;;;;6.07;5.17;;;-0.80;99.90;;;;;;5015854;28;20578;-76
2021/01/20 02:22:44;;;;;;;10.13;5.87;;;-0.80;99.90;;;;;;5028855;28;20586;-75
2021/01/20 02:25:59;;;;;;;7.07;4.90;;;-0.80;99.90;;;;;;5015826;28;20180;-75
2021/01/20 02:28:35;;;;;;;6.60;5.00;;;-0.80;99.90;;;;;;4953451;28;20189;-75
2021/01/20 02:31:04;;;;;;;7.63;5.60;;;-0.70;99.90;;;;;;5015874;28;20193;-76
2021/01/20 02:33:33;;;;;;;8.53;5.50;;;-0.60;99.90;;;;;;5033387;28;20255;-75
2021/01/20 02:36:03;;;;;;;6.73;5.27;;;-0.50;99.90;;;;;;5033344;28;20534;-76
2021/01/20 02:38:29;;;;;;;10.63;5.87;;;-0.50;99.90;;;;;;5033216;28;20240;-75
2021/01/20 02:40:55;;;;;;;7.27;5.63;;;-0.70;99.90;;;;;;5033476;28;20183;-76
2021/01/20 02:43:25;;;;;;;5.73;5.00;;;-0.80;99.90;;;;;;5033297;28;20197;-76
2021/01/20 02:45:51;;;;;;;6.13;4.87;;;-0.80;99.90;;;;;;5033230;28;20184;-76
2021/01/20 02:48:18;;;;;;;5.53;4.77;;;-0.90;99.90;;;;;;5033526;28;20335;-76
2021/01/20 02:50:44;;;;;;;7.23;5.37;;;-0.90;99.90;;;;;;5028286;28;20188;-76
2021/01/20 02:53:15;;;;;;;6.17;5.23;;;-0.90;99.90;;;;;;5021520;28;20206;-76
2021/01/20 02:55:47;;;;;;;6.30;5.67;;;-1.00;99.90;;;;;;5031295;28;20193;-76
2021/01/20 02:58:20;;;;;;;6.40;5.37;;;-1.00;99.90;;;;;;5031787;28;20692;-76
2021/01/20 03:00:49;;;;;;;7.77;4.73;;;-1.00;99.90;;;;;;5032802;28;20264;-76
2021/01/20 03:03:17;;;;;;;7.53;5.10;;;-1.10;99.90;;;;;;5033318;28;20226;-76
2021/01/20 03:05:44;;;;;;;6.50;5.00;;;-1.20;99.90;;;;;;5014837;28;20185;-75
2021/01/20 03:08:11;;;;;;;8.73;5.17;;;-1.20;99.90;;;;;;5033079;28;20185;-76
2021/01/20 03:10:37;;;;;;;5.50;4.57;;;-1.30;99.90;;;;;;5033310;28;20552;-76
2021/01/20 03:13:05;;;;;;;5.80;4.70;;;-1.30;99.90;;;;;;5032884;28;20216;-76
2021/01/20 03:15:35;;;;;;;6.80;6.13;;;-1.20;99.90;;;;;;5033025;28;20562;-76
2021/01/20 03:18:01;;;;;;;6.30;5.37;;;-1.10;99.90;;;;;;5032796;28;20181;-76
2021/01/20 03:20:27;;;;;;;6.40;5.43;;;-1.10;99.90;;;;;;5032894;28;20641;-76
2021/01/20 03:22:53;;;;;;;5.47;4.67;;;-0.90;99.90;;;;;;5033124;28;20208;-77
2021/01/20 03:25:19;;;;;;;5.63;5.00;;;-1.00;99.90;;;;;;5015302;28;20240;-76
2021/01/20 03:27:45;;;;;;;6.20;5.60;;;-1.10;99.90;;;;;;5025359;28;20183;-76
2021/01/20 03:30:11;;;;;;;5.97;5.27;;;-1.10;99.90;;;;;;5032427;28;20189;-76
2021/01/20 03:32:37;;;;;;;6.10;5.50;;;-1.20;99.90;;;;;;5032876;28;20278;-75
2021/01/20 03:35:03;;;;;;;7.10;6.33;;;-1.20;99.90;;;;;;5032852;28;20181;-76
2021/01/20 03:37:29;;;;;;;11.07;6.67;;;-1.20;99.90;;;;;;5032791;28;20627;-77
2021/01/20 03:39:55;;;;;;;6.70;6.00;;;-1.30;99.90;;;;;;5032678;28;20301;-76
2021/01/20 03:42:21;;;;;;;6.80;5.83;;;-1.40;99.90;;;;;;5014886;28;20284;-76
2021/01/20 03:44:47;;;;;;;6.93;6.30;;;-1.40;99.90;;;;;;5032662;28;20181;-76
2021/01/20 03:47:13;;;;;;;8.73;7.60;;;-1.40;99.90;;;;;;5032615;28;20186;-76
2021/01/20 03:49:39;;;;;;;7.13;6.43;;;-1.50;99.90;;;;;;5032691;28;20273;-76
2021/01/20 03:52:04;;;;;;;7.93;6.80;;;-1.50;99.90;;;;;;5032634;28;20244;-76
2021/01/20 03:54:30;;;;;;;9.10;6.80;;;-1.50;99.90;;;;;;5032403;28;20178;-76
2021/01/20 03:56:56;;;;;;;6.67;5.70;;;-1.50;99.90;;;;;;5029752;28;20327;-77
2021/01/20 03:59:22;;;;;;;7.13;6.43;;;-1.50;99.90;;;;;;5032571;28;20719;-77
2021/01/20 04:01:48;;;;;;;8.07;6.20;;;-1.40;99.90;;;;;;5032899;28;20542;-77
2021/01/20 04:04:14;;;;;;;7.50;6.70;;;-1.50;99.90;;;;;;5015131;28;20183;-76
2021/01/20 04:06:40;;;;;;;8.60;6.57;;;-1.50;99.90;;;;;;5015152;28;20177;-77
2021/01/20 04:09:05;;;;;;;7.60;6.50;;;-1.40;99.90;;;;;;5032584;28;20200;-77
2021/01/20 04:11:32;;;;;;;7.47;6.70;;;-1.30;99.90;;;;;;5033874;28;20284;-77
2021/01/20 04:13:58;;;;;;;7.53;6.60;;;-1.20;99.90;;;;;;5060959;23;20232;-75
2021/01/20 04:16:24;;;;;;;7.10;6.40;;;-1.20;99.90;;;;;;5055762;28;20549;-75
2021/01/20 04:18:49;;;;;;;8.87;6.33;;;-1.10;99.90;;;;;;5038205;28;20288;-75
2021/01/20 04:21:15;;;;;;;7.43;6.57;;;-1.10;99.90;;;;;;5037883;28;20180;-76
2021/01/20 04:23:41;;;;;;;9.13;6.47;;;-1.10;99.90;;;;;;5055695;28;20220;-76
2021/01/20 04:26:08;;;;;;;8.03;5.70;;;-1.20;99.90;;;;;;5055955;28;20180;-75
2021/01/20 04:28:34;;;;;;;6.93;6.00;;;-1.20;99.90;;;;;;5023252;28;20269;-75
2021/01/20 04:31:01;;;;;;;8.20;6.40;;;-1.20;99.90;;;;;;5035943;28;20189;-75
2021/01/20 04:33:27;;;;;;;6.37;5.77;;;-1.10;99.90;;;;;;5017503;28;20248;-75
2021/01/20 04:35:53;;;;;;;6.97;6.27;;;-1.10;99.90;;;;;;5035658;28;20664;-75
2021/01/20 04:38:19;;;;;;;7.50;6.77;;;-1.10;99.90;;;;;;5035399;28;20566;-75
2021/01/20 04:40:45;;;;;;;8.43;6.57;;;-1.10;99.90;;;;;;5035757;28;20189;-76
2021/01/20 04:43:11;;;;;;;6.60;5.70;;;-1.10;99.90;;;;;;5035667;28;20202;-75
2021/01/20 04:45:38;;;;;;;6.93;6.13;;;-1.10;99.90;;;;;;5035642;28;20205;-76
2021/01/20 04:48:06;;;;;;;7.67;6.13;;;-1.10;99.90;;;;;;5035434;28;20174;-76
2021/01/20 04:50:33;;;;;;;7.90;6.60;;;-1.10;99.90;;;;;;5017496;28;20173;-76
2021/01/20 04:53:08;;;;;;;7.07;5.97;;;-1.10;99.90;;;;;;5035454;28;20194;-76
2021/01/20 04:55:37;;;;;;;8.37;6.63;;;-1.10;99.90;;;;;;5013477;28;20173;-76
2021/01/20 04:58:02;;;;;;;7.53;6.67;;;-1.10;99.90;;;;;;5017326;28;20655;-76
2021/01/20 05:00:28;;;;;;;7.20;6.47;;;-1.20;99.90;;;;;;5033217;28;20275;-76
2021/01/20 05:02:56;;;;;;;7.90;7.07;;;-1.30;99.90;;;;;;5008025;28;20744;-76
2021/01/20 05:05:22;;;;;;;7.17;6.53;;;-1.40;99.90;;;;;;5017754;28;20185;-76
2021/01/20 05:07:47;;;;;;;7.60;6.80;;;-1.50;99.90;;;;;;5034548;28;20669;-76
2021/01/20 05:10:13;;;;;;;8.70;6.67;;;-1.60;99.90;;;;;;5034046;28;20177;-75
2021/01/20 05:12:41;;;;;;;8.87;7.97;;;-1.70;99.90;;;;;;5034097;28;20722;-75
2021/01/20 05:15:15;;;;;;;9.50;8.10;;;-1.70;99.90;;;;;;5016508;28;20183;-75
2021/01/20 05:18:04;;;;;;;9.37;7.53;;;-1.80;99.90;;;;;;5034607;28;20177;-76
2021/01/20 05:20:37;;;;;;;9.07;7.50;;;-1.70;99.90;;;;;;5034733;28;20188;-76
2021/01/20 05:23:05;;;;;;;8.43;7.37;;;-1.60;99.90;;;;;;5034735;28;20272;-76
2021/01/20 05:25:48;;;;;;;8.17;7.37;;;-1.50;99.90;;;;;;5034918;28;20177;-76
2021/01/20 05:28:26;;;;;;;8.67;6.90;;;-1.50;99.90;;;;;;5034389;28;20177;-76
2021/01/20 05:30:54;;;;;;;7.90;6.80;;;-1.40;99.90;;;;;;5034572;28;20181;-76
2021/01/20 05:33:28;;;;;;;8.10;7.30;;;-1.40;99.90;;;;;;5034359;28;20201;-76
2021/01/20 05:36:05;;;;;;;7.20;6.50;;;-1.40;99.90;;;;;;5034641;28;20177;-76
2021/01/20 05:38:48;;;;;;;7.13;6.40;;;-1.30;99.90;;;;;;5033610;28;20243;-76
2021/01/20 05:41:32;;;;;;;9.53;6.87;;;-1.30;99.90;;;;;;5030190;28;20663;-76
2021/01/20 05:44:15;;;;;;;7.37;6.67;;;-1.40;99.90;;;;;;5033056;28;20251;-77
2021/01/20 05:46:42;;;;;;;7.30;6.50;;;-1.30;99.90;;;;;;5033677;28;20804;-76
2021/01/20 05:49:24;;;;;;;7.70;6.70;;;-1.30;99.90;;;;;;5033631;28;20173;-76
2021/01/20 05:51:52;;;;;;;7.50;6.33;;;-1.30;99.90;;;;;;5029905;28;20273;-75
2021/01/20 05:54:30;;;;;;;7.87;7.03;;;-1.30;99.90;;;;;;5032543;28;20195;-76
2021/01/20 05:57:14;;;;;;;7.60;6.80;;;-1.30;99.90;;;;;;5031598;28;20243;-76
2021/01/20 05:59:41;;;;;;;8.80;6.80;;;-1.30;99.90;;;;;;5032475;28;20197;-76
2021/01/20 06:02:11;;;;;;;9.30;7.00;;;-1.30;99.90;;;;;;5033084;28;20188;-76
2021/01/20 06:04:38;;;;;;;7.80;6.87;;;-1.30;99.90;;;;;;5024232;28;20595;-76
2021/01/20 06:07:12;;;;;;;7.83;6.70;;;-1.30;99.90;;;;;;5033730;28;20189;-76
2021/01/20 06:09:43;;;;;;;8.50;5.97;;;-1.30;99.90;;;;;;5033163;28;20206;-76
2021/01/20 06:12:10;;;;;;;7.43;6.73;;;-1.30;99.90;;;;;;5014795;28;20242;-76
2021/01/20 06:14:41;;;;;;;9.33;6.63;;;-1.30;99.90;;;;;;5031081;28;20240;-76
2021/01/20 06:17:14;;;;;;;8.57;6.93;;;-1.40;99.90;;;;;;5023439;28;20178;-76
2021/01/20 06:19:47;;;;;;;9.27;7.00;;;-1.30;99.90;;;;;;5032771;28;20233;-76
2021/01/20 06:22:15;;;;;;;7.90;6.83;;;-1.40;99.90;;;;;;5015768;28;20177;-76
2021/01/20 06:25:03;;;;;;;10.63;7.40;;;-1.40;99.90;;;;;;5033486;28;20181;-76
2021/01/20 06:28:05;;;;;;;8.83;7.87;;;-1.40;99.90;;;;;;5033405;28;20257;-76
2021/01/20 06:30:34;;;;;;;10.33;8.67;;;-1.40;99.90;;;;;;5033456;28;20181;-76
2021/01/20 06:33:06;;;;;;;8.23;7.10;;;-1.40;99.90;;;;;;5033787;28;20197;-76
2021/01/20 06:35:44;;;;;;;9.57;6.53;;;-1.40;99.90;;;;;;5033589;28;20173;-76
2021/01/20 06:38:39;;;;;;;10.00;7.43;;;-1.50;99.90;;;;;;5015552;28;20184;-78
2021/01/20 06:41:11;;;;;;;9.00;7.27;;;-1.50;99.90;;;;;;5024763;28;20183;-76
2021/01/20 06:43:47;;;;;;;7.77;6.60;;;-1.50;99.90;;;;;;5033463;28;20200;-77
2021/01/20 06:46:22;;;;;;;10.07;7.17;;;-1.50;99.90;;;;;;5033637;28;20185;-77
2021/01/20 06:48:54;;;;;;;11.43;7.90;;;-1.50;99.90;;;;;;5015872;28;20197;-77
2021/01/20 06:51:21;;;;;;;10.90;8.70;;;-1.50;99.90;;;;;;5033365;28;20243;-77
2021/01/20 06:54:01;;;;;;;13.03;8.63;;;-1.60;99.90;;;;;;5033252;28;20205;-77
2021/01/20 06:56:39;;;;;;;10.03;7.87;;;-1.60;99.90;;;;;;5033144;28;20176;-77
2021/01/20 06:59:24;;;;;;;11.43;8.70;;;-1.70;99.90;;;;;;5032937;28;20201;-78
2021/01/20 07:02:19;;;;;;;9.67;7.63;;;-1.80;99.90;;;;;;5033384;28;20185;-76
2021/01/20 07:04:53;;;;;;;8.07;7.10;;;-1.90;99.90;;;;;;5016055;28;20196;-76
2021/01/20 07:07:56;;;;;;;9.43;8.00;;;-1.80;99.90;;;;;;5031928;28;20173;-77
2021/01/20 07:10:26;;;;;;;8.70;7.60;;;-1.80;99.90;;;;;;5032658;28;20174;-77
2021/01/20 07:13:10;;;;;;;8.33;7.30;;;-1.70;99.90;;;;;;5032870;28;20240;-76
2021/01/20 07:15:43;;;;;;;10.80;8.17;;;-1.70;99.90;;;;;;5032970;28;20184;-76
2021/01/20 07:18:12;;;;;;;7.93;7.00;;;-1.70;99.90;;;;;;5032759;28;20188;-77
2021/01/20 07:20:40;;;;;;;9.40;7.90;;;-1.70;99.90;;;;;;5032892;28;20181;-77
2021/01/20 07:23:06;;;;;;;9.70;7.70;;;-1.70;99.90;;;;;;5032836;28;20197;-76
2021/01/20 07:25:32;;;;;;;8.57;7.60;;;-1.70;99.90;;;;;;5032832;28;20188;-76
2021/01/20 07:27:57;;;;;;;8.30;6.67;;;-1.60;99.90;;;;;;5014990;28;20253;-76
2021/01/20 07:30:24;;;;;;;11.70;7.57;;;-1.80;99.90;;;;;;5032762;28;20180;-76
2021/01/20 07:32:49;;;;;;;8.77;7.40;;;-1.80;99.90;;;;;;5045688;28;20730;-76
2021/01/20 07:35:22;;;;;;;8.43;6.90;;;-1.90;99.90;;;;;;5052643;28;20267;-76
2021/01/20 07:38:02;;;;;;;17.10;9.47;;;-2.00;99.90;;;;;;5052588;28;20195;-76
2021/01/20 07:40:30;;;;;;;12.33;8.70;;;-2.10;99.90;;;;;;5052265;28;20181;-76
2021/01/20 07:42:56;;;;;;;14.17;8.93;;;-2.10;99.90;;;;;;5052518;28;20274;-76
2021/01/20 07:45:47;;;;;;;9.40;7.70;;;-2.00;99.90;;;;;;5034625;28;20358;-76
2021/01/20 07:48:13;;;;;;;9.67;7.30;;;-2.00;99.90;;;;;;5038659;28;20176;-76
2021/01/20 07:50:42;;;;;;;9.17;7.93;;;-1.90;99.90;;;;;;5056355;28;20257;-76
2021/01/20 07:53:13;;;;;;;12.53;8.83;;;-1.90;99.90;;;;;;5056647;28;20557;-76
2021/01/20 07:55:40;;;;;;;8.83;7.83;;;-1.80;99.90;;;;;;5056310;28;20255;-76
2021/01/20 07:58:06;;;;;;;9.20;7.93;;;-1.90;99.90;;;;;;5056482;28;20179;-76
2021/01/20 08:00:42;;;;;;;10.97;8.07;;;-2.00;99.90;;;;;;5056598;28;20229;-76
2021/01/20 08:03:07;;;;;;;11.03;8.20;;;-2.10;99.90;;;;;;5038077;28;20709;-76
2021/01/20 08:05:34;;;;;;;9.90;8.07;;;-2.00;99.90;;;;;;5019969;28;20165;-76
2021/01/20 08:08:13;;;;;;;12.60;8.40;;;-1.90;99.90;;;;;;5053900;28;20170;-76
2021/01/20 08:10:42;;;;;;;11.67;9.17;;;-1.80;99.90;;;;;;5055992;28;20279;-76
2021/01/20 08:13:12;;;;;;;16.00;11.20;;;-1.80;99.90;;;;;;5055557;28;20712;-76
2021/01/20 08:15:40;;;;;;;14.23;10.30;;;-1.70;99.90;;;;;;5038316;28;20540;-76
2021/01/20 08:18:08;;;;;;;23.83;14.23;;;-1.60;99.90;;;;;;5055979;28;20185;-76
2021/01/20 08:20:34;;;;;;;33.37;18.57;;;-1.60;99.90;;;;;;5056068;28;20588;-75
2021/01/20 08:23:02;;;;;;;16.20;10.00;;;-1.60;99.90;;;;;;5047245;28;20563;-75
2021/01/20 08:25:28;;;;;;;8.23;7.30;;;-1.60;99.90;;;;;;5056077;28;20631;-75
2021/01/20 08:27:54;;;;;;;8.73;7.53;;;-1.60;99.90;;;;;;5028600;28;20201;-75
2021/01/20 08:30:32;;;;;;;11.30;8.20;;;-1.70;99.90;;;;;;5036079;28;20218;-75
2021/01/20 08:32:59;;;;;;;8.53;7.63;;;-1.80;99.90;;;;;;5017847;28;20228;-76
2021/01/20 08:35:30;;;;;;;9.93;7.87;;;-1.80;99.90;;;;;;5035980;28;20224;-75
2021/01/20 08:37:57;;;;;;;8.73;7.80;;;-1.80;99.90;;;;;;5035887;28;20224;-75
2021/01/20 08:40:23;;;;;;;11.97;9.30;;;-1.90;99.90;;;;;;5035089;28;20198;-74
2021/01/20 08:42:50;;;;;;;10.90;8.60;;;-1.80;99.90;;;;;;5034741;28;20195;-75
2021/01/20 08:45:22;;;;;;;13.67;10.13;;;-1.80;99.90;;;;;;5017009;28;20184;-75
2021/01/20 08:47:50;;;;;;;12.60;9.10;;;-1.70;99.90;;;;;;5035677;28;20180;-75
2021/01/20 08:50:40;;;;;;;11.60;9.73;;;-1.60;99.90;;;;;;5017664;28;20618;-75
2021/01/20 08:53:13;;;;;;;13.50;10.13;;;-1.50;99.90;;;;;;5035604;28;20200;-75
2021/01/20 08:55:55;;;;;;;10.77;9.67;;;-1.40;99.90;;;;;;5035323;28;20189;-74
2021/01/20 08:58:28;;;;;;;11.40;9.87;;;-1.30;99.90;;;;;;5017652;28;20172;-75
2021/01/20 09:00:56;;;;;;;12.53;10.70;;;-1.20;99.90;;;;;;5035226;28;20248;-75
2021/01/20 09:03:25;;;;;;;15.83;9.97;;;-1.20;99.90;;;;;;5035338;28;20606;-75
2021/01/20 09:05:52;;;;;;;15.00;10.33;;;-1.20;99.90;;;;;;5017285;28;20185;-75
2021/01/20 09:08:19;;;;;;;12.83;10.70;;;-1.10;99.90;;;;;;5017233;28;20177;-75
2021/01/20 09:10:46;;;;;;;14.17;11.23;;;-1.00;99.90;;;;;;5017257;28;20653;-75
2021/01/20 09:13:12;;;;;;;13.17;10.77;;;-1.00;99.90;;;;;;5017002;28;20211;-75
2021/01/20 09:15:38;;;;;;;14.50;10.90;;;-0.90;99.90;;;;;;5034649;28;20275;-75
2021/01/20 09:18:06;;;;;;;18.10;10.80;;;-0.90;99.90;;;;;;5034739;28;20693;-75
2021/01/20 09:20:33;;;;;;;12.17;10.03;;;-0.80;99.90;;;;;;5017045;28;20183;-75
2021/01/20 09:23:00;;;;;;;16.97;11.83;;;-0.80;99.90;;;;;;5034541;28;20222;-75
2021/01/20 09:25:26;;;;;;;18.33;13.17;;;-0.80;99.90;;;;;;5034730;28;20654;-75
2021/01/20 09:27:52;;;;;;;17.33;12.93;;;-0.80;99.90;;;;;;5034529;28;20178;-75
2021/01/20 09:30:18;;;;;;;16.30;12.50;;;-0.70;99.90;;;;;;5016717;28;20268;-75
2021/01/20 09:32:43;;;;;;;14.43;11.13;;;-0.70;99.90;;;;;;5034868;28;20558;-75
2021/01/20 09:35:12;;;;;;;13.87;10.27;;;-0.60;99.90;;;;;;5034667;28;20189;-75
2021/01/20 09:37:40;;;;;;;16.07;11.17;;;-0.50;99.90;;;;;;5034529;28;20576;-75
2021/01/20 09:40:11;;;;;;;17.57;12.47;;;-0.50;99.90;;;;;;5034303;28;20263;-75
2021/01/20 09:42:38;;;;;;;13.73;12.27;;;-0.40;99.90;;;;;;5034850;28;20672;-75
2021/01/20 09:45:07;;;;;;;13.70;11.43;;;-0.40;99.90;;;;;;5036074;28;20171;-75
2021/01/20 09:47:34;;;;;;;14.87;11.67;;;-0.40;99.90;;;;;;5034812;28;20551;-75
2021/01/20 09:50:02;;;;;;;18.10;13.57;;;-0.30;99.90;;;;;;5034293;28;20178;-75
2021/01/20 09:52:28;;;;;;;14.13;12.20;;;-0.30;99.90;;;;;;5034114;28;20205;-75
2021/01/20 09:54:54;;;;;;;13.33;11.90;;;-0.20;99.90;;;;;;5034427;28;20265;-75
2021/01/20 09:57:23;;;;;;;15.37;11.60;;;-0.20;99.90;;;;;;5016244;28;20182;-75
2021/01/20 09:59:49;;;;;;;15.07;11.93;;;-0.10;99.90;;;;;;5033773;28;20202;-75
2021/01/20 10:02:16;;;;;;;13.90;12.40;;;0.00;99.90;;;;;;5034163;28;20581;-75
2021/01/20 10:04:42;;;;;;;16.43;13.10;;;0.00;99.90;;;;;;5016206;28;20181;-75
2021/01/20 10:07:08;;;;;;;17.03;13.43;;;0.10;99.90;;;;;;5034008;28;20179;-75
2021/01/20 10:09:35;;;;;;;15.27;13.10;;;0.10;99.90;;;;;;5026298;28;20208;-75
2021/01/20 10:12:01;;;;;;;16.80;13.40;;;0.20;99.90;;;;;;5033891;28;20546;-75
2021/01/20 10:14:27;;;;;;;17.40;13.50;;;0.30;99.90;;;;;;5058548;23;20323;-74
2021/01/20 10:16:52;;;;;;;18.30;14.20;;;0.30;99.90;;;;;;5030770;28;20167;-73
2021/01/20 10:19:19;;;;;;;17.77;13.53;;;0.40;99.90;;;;;;5028995;28;20198;-73
2021/01/20 10:21:45;;;;;;;19.30;13.33;;;0.40;99.90;;;;;;5033690;28;20171;-72
2021/01/20 10:24:11;;;;;;;16.67;12.73;;;0.40;99.90;;;;;;5034329;28;20190;-73
2021/01/20 10:26:38;;;;;;;26.50;16.10;;;0.50;99.90;;;;;;5034142;28;20227;-72
2021/01/20 10:29:05;;;;;;;21.73;14.20;;;0.60;99.90;;;;;;5025295;28;20173;-72
2021/01/20 10:31:38;;;;;;;16.40;13.77;;;0.60;99.90;;;;;;5033885;28;20633;-73
2021/01/20 10:34:06;;;;;;;20.80;14.17;;;0.70;99.90;;;;;;5033615;28;20699;-73
2021/01/20 10:36:33;;;;;;;21.80;13.67;;;0.80;99.90;;;;;;5034098;28;20253;-72
2021/01/20 10:39:00;;;;;;;17.90;12.77;;;0.80;99.90;;;;;;5033736;28;20197;-73
2021/01/20 10:41:26;;;;;;;14.90;12.73;;;0.80;99.90;;;;;;5033329;28;20214;-72
2021/01/20 10:43:53;;;;;;;18.13;13.57;;;0.90;99.90;;;;;;5033424;28;20676;-73
2021/01/20 10:46:25;;;;;;;14.50;12.03;;;0.90;99.90;;;;;;5015706;28;20333;-73
2021/01/20 10:48:51;;;;;;;14.37;12.87;;;0.90;99.90;;;;;;5033247;28;20671;-71
2021/01/20 10:51:17;;;;;;;15.57;11.93;;;0.90;99.90;;;;;;5033480;28;20665;-70
2021/01/20 10:53:43;;;;;;;20.93;13.87;;;1.00;99.90;;;;;;5015313;28;20237;-72
2021/01/20 10:56:09;;;;;;;19.03;13.97;;;1.10;99.90;;;;;;5033725;28;20187;-72
2021/01/20 10:58:35;;;;;;;17.17;13.13;;;1.20;99.90;;;;;;5036910;28;20240;-72
2021/01/20 11:01:03;;;;;;;17.00;13.83;;;1.30;99.90;;;;;;5037365;28;20183;-71
2021/01/20 11:03:30;;;;;;;16.90;13.07;;;1.30;99.90;;;;;;5027894;28;20625;-71
2021/01/20 11:05:56;;;;;;;17.73;14.13;;;1.30;99.90;;;;;;5029269;28;20214;-72
2021/01/20 11:08:22;;;;;;;21.83;13.53;;;1.50;99.90;;;;;;5033601;28;20188;-70
2021/01/20 11:10:48;;;;;;;22.30;13.27;;;1.50;99.90;;;;;;5033466;28;20178;-73
2021/01/20 11:13:15;;;;;;;16.37;13.23;;;1.60;99.90;;;;;;5032532;28;20227;-71
2021/01/20 11:15:45;;;;;;;19.17;14.03;;;1.60;99.90;;;;;;5033122;28;20177;-73
2021/01/20 11:18:13;;;;;;;19.70;14.20;;;1.70;99.90;;;;;;5032949;28;20182;-72
2021/01/20 11:20:39;;;;;;;22.50;15.17;;;1.70;99.90;;;;;;5034196;28;20182;-73
2021/01/20 11:23:12;;;;;;;20.50;16.67;;;1.70;99.90;;;;;;5036543;28;20186;-72
2021/01/20 11:25:45;;;;;;;25.43;17.10;;;1.70;99.90;;;;;;5036486;28;20174;-71
2021/01/20 11:28:13;;;;;;;21.23;15.87;;;1.80;99.90;;;;;;5010724;28;20182;-70
2021/01/20 11:30:42;;;;;;;21.83;14.27;;;1.80;99.90;;;;;;5037205;28;20253;-70
2021/01/20 11:33:11;;;;;;;19.37;13.33;;;1.90;99.90;;;;;;5018359;28;20186;-70
2021/01/20 11:35:38;;;;;;;19.90;14.00;;;2.00;99.90;;;;;;5012025;28;20684;-70
2021/01/20 11:38:05;;;;;;;21.60;14.30;;;2.00;99.90;;;;;;5006036;28;20211;-74
2021/01/20 11:40:33;;;;;;;19.77;13.80;;;2.00;99.90;;;;;;5017629;28;20196;-70
2021/01/20 11:42:59;;;;;;;19.60;13.97;;;2.00;99.90;;;;;;5007123;28;20225;-70
2021/01/20 11:45:35;;;;;;;18.00;13.20;;;2.10;99.90;;;;;;5026680;28;20202;-75
2021/01/20 11:48:03;;;;;;;20.07;13.30;;;2.20;99.90;;;;;;5031099;28;20170;-73
2021/01/20 11:50:33;;;;;;;21.13;13.30;;;2.30;99.90;;;;;;5033044;28;20212;-72
2021/01/20 11:52:59;;;;;;;20.43;14.23;;;2.30;99.90;;;;;;5032943;28;20190;-71
2021/01/20 11:55:25;;;;;;;21.03;14.30;;;2.40;99.90;;;;;;5031435;28;20206;-71
2021/01/20 11:57:51;;;;;;;18.33;14.63;;;2.30;99.90;;;;;;4991608;28;20562;-71
2021/01/20 12:00:18;;;;;;;21.13;15.00;;;2.40;99.90;;;;;;5014662;28;20198;-73
2021/01/20 12:02:44;;;;;;;20.07;15.33;;;2.50;99.90;;;;;;5031048;28;20281;-72
2021/01/20 12:05:14;;;;;;;25.30;16.80;;;2.50;99.90;;;;;;5015073;28;20708;-73
2021/01/20 12:07:40;;;;;;;26.37;16.97;;;2.50;99.90;;;;;;5010166;28;20170;-73
2021/01/20 12:10:07;;;;;;;21.67;14.77;;;2.50;99.90;;;;;;5030539;28;20244;-75
2021/01/20 12:12:34;;;;;;;24.10;15.13;;;2.50;99.90;;;;;;5032807;28;20635;-71
2021/01/20 12:15:00;;;;;;;31.17;16.30;;;2.50;99.90;;;;;;5032165;28;20230;-71
2021/01/20 12:17:26;;;;;;;20.87;15.10;;;2.60;99.90;;;;;;5009814;28;20640;-71
2021/01/20 12:19:52;;;;;;;21.80;14.60;;;2.60;99.90;;;;;;5016148;28;20193;-71
2021/01/20 12:22:18;;;;;;;21.27;14.27;;;2.60;99.90;;;;;;5024969;28;20174;-75
2021/01/20 12:24:49;;;;;;;19.63;13.07;;;2.70;99.90;;;;;;5032758;28;20284;-72
2021/01/20 12:27:15;;;;;;;17.83;12.67;;;2.70;99.90;;;;;;4976194;28;20678;-72
2021/01/20 12:29:41;;;;;;;14.33;11.97;;;2.70;99.90;;;;;;5017481;28;20175;-73
2021/01/20 12:32:07;;;;;;;17.17;12.63;;;2.80;99.90;;;;;;5015393;28;20586;-73
2021/01/20 12:34:33;;;;;;;17.77;12.70;;;2.80;99.90;;;;;;5019750;28;20206;-71
2021/01/20 12:36:59;;;;;;;18.10;11.90;;;3.00;99.90;;;;;;5014339;28;20178;-71
2021/01/20 12:39:25;;;;;;;19.43;11.70;;;2.90;99.90;;;;;;5024916;28;20609;-71
2021/01/20 12:41:51;;;;;;;17.90;12.30;;;2.80;99.90;;;;;;5031698;28;20206;-71
2021/01/20 12:44:18;;;;;;;20.30;12.37;;;3.00;99.90;;;;;;5033561;28;20633;-73
2021/01/20 12:46:43;;;;;;;19.43;12.63;;;2.90;99.90;;;;;;5034557;28;20178;-72
2021/01/20 12:49:09;;;;;;;16.43;12.23;;;3.00;99.90;;;;;;5035428;28;20174;-72
2021/01/20 12:51:35;;;;;;;16.43;12.23;;;3.10;99.90;;;;;;5009648;28;20279;-71
2021/01/20 12:54:01;;;;;;;16.77;12.50;;;2.90;99.90;;;;;;4998120;28;20673;-71